RJKI(METAR)
10/21 04:00
METAR RJKI 201900Z AUTO 08006KT 9999 FEW023 SCT035 23/21 Q1016 RMK
A3001=
戻る
トップページへ戻る
IMOC Co,.Ltd.